sensor_id;sensor_type;location;lat;lon;timestamp;P1;durP1;ratioP1;P2;durP2;ratioP2
37931;SDS011;23758;42.640;23.302;2023-05-29T00:00:47;2.40;;;2.30;;
37931;SDS011;23758;42.640;23.302;2023-05-29T00:03:13;2.50;;;2.40;;
37931;SDS011;23758;42.640;23.302;2023-05-29T00:05:38;2.50;;;2.30;;
37931;SDS011;23758;42.640;23.302;2023-05-29T00:08:04;2.60;;;2.40;;
37931;SDS011;23758;42.640;23.302;2023-05-29T00:10:30;2.53;;;2.40;;
37931;SDS011;23758;42.640;23.302;2023-05-29T00:12:56;2.55;;;2.40;;
37931;SDS011;23758;42.640;23.302;2023-05-29T00:15:22;3.20;;;3.00;;
37931;SDS011;23758;42.640;23.302;2023-05-29T00:17:48;2.80;;;2.60;;
37931;SDS011;23758;42.640;23.302;2023-05-29T00:20:14;2.85;;;2.65;;
37931;SDS011;23758;42.640;23.302;2023-05-29T00:22:39;2.80;;;2.60;;
37931;SDS011;23758;42.640;23.302;2023-05-29T00:25:05;2.60;;;2.40;;
37931;SDS011;23758;42.640;23.302;2023-05-29T00:27:32;2.70;;;2.50;;
37931;SDS011;23758;42.640;23.302;2023-05-29T00:29:58;2.83;;;2.63;;
37931;SDS011;23758;42.640;23.302;2023-05-29T00:32:24;2.90;;;2.70;;
37931;SDS011;23758;42.640;23.302;2023-05-29T00:34:50;2.78;;;2.58;;
37931;SDS011;23758;42.640;23.302;2023-05-29T00:37:16;2.42;;;2.33;;
37931;SDS011;23758;42.640;23.302;2023-05-29T00:39:42;2.70;;;2.50;;
37931;SDS011;23758;42.640;23.302;2023-05-29T00:42:08;2.50;;;2.40;;
37931;SDS011;23758;42.640;23.302;2023-05-29T00:44:33;2.72;;;2.53;;
37931;SDS011;23758;42.640;23.302;2023-05-29T00:47:00;2.80;;;2.60;;
37931;SDS011;23758;42.640;23.302;2023-05-29T00:49:26;2.80;;;2.58;;
37931;SDS011;23758;42.640;23.302;2023-05-29T00:51:52;3.35;;;3.15;;
37931;SDS011;23758;42.640;23.302;2023-05-29T00:54:20;2.60;;;2.45;;
37931;SDS011;23758;42.640;23.302;2023-05-29T00:56:47;2.38;;;2.28;;
37931;SDS011;23758;42.640;23.302;2023-05-29T00:59:12;2.78;;;2.58;;
37931;SDS011;23758;42.640;23.302;2023-05-29T01:01:38;2.90;;;2.70;;
37931;SDS011;23758;42.640;23.302;2023-05-29T01:04:05;2.78;;;2.58;;
37931;SDS011;23758;42.640;23.302;2023-05-29T01:06:34;2.55;;;2.40;;
37931;SDS011;23758;42.640;23.302;2023-05-29T01:09:00;2.90;;;2.70;;
37931;SDS011;23758;42.640;23.302;2023-05-29T01:11:36;2.72;;;2.53;;
37931;SDS011;23758;42.640;23.302;2023-05-29T01:14:06;3.17;;;2.88;;
37931;SDS011;23758;42.640;23.302;2023-05-29T01:16:38;2.80;;;2.60;;
37931;SDS011;23758;42.640;23.302;2023-05-29T01:19:16;2.80;;;2.60;;
37931;SDS011;23758;42.640;23.302;2023-05-29T01:27:17;2.60;;;2.40;;
37931;SDS011;23758;42.640;23.302;2023-05-29T01:29:43;2.85;;;2.65;;
37931;SDS011;23758;42.640;23.302;2023-05-29T01:32:10;3.63;;;3.30;;
37931;SDS011;23758;42.640;23.302;2023-05-29T01:34:36;2.70;;;2.50;;
37931;SDS011;23758;42.640;23.302;2023-05-29T01:37:01;2.75;;;2.55;;
37931;SDS011;23758;42.640;23.302;2023-05-29T01:39:28;2.40;;;2.30;;
37931;SDS011;23758;42.640;23.302;2023-05-29T01:41:54;3.00;;;2.80;;
37931;SDS011;23758;42.640;23.302;2023-05-29T01:44:21;2.88;;;2.67;;
37931;SDS011;23758;42.640;23.302;2023-05-29T01:46:47;2.35;;;2.25;;
37931;SDS011;23758;42.640;23.302;2023-05-29T01:49:13;2.80;;;2.60;;
37931;SDS011;23758;42.640;23.302;2023-05-29T01:51:39;2.40;;;2.30;;
37931;SDS011;23758;42.640;23.302;2023-05-29T01:54:06;2.80;;;2.60;;
37931;SDS011;23758;42.640;23.302;2023-05-29T01:56:32;2.70;;;2.50;;
37931;SDS011;23758;42.640;23.302;2023-05-29T01:58:58;2.40;;;2.30;;
37931;SDS011;23758;42.640;23.302;2023-05-29T02:01:24;2.65;;;2.45;;
37931;SDS011;23758;42.640;23.302;2023-05-29T02:03:50;2.88;;;2.67;;
37931;SDS011;23758;42.640;23.302;2023-05-29T02:06:18;2.60;;;2.40;;
37931;SDS011;23758;42.640;23.302;2023-05-29T02:08:44;2.80;;;2.60;;
37931;SDS011;23758;42.640;23.302;2023-05-29T02:11:10;2.72;;;2.53;;
37931;SDS011;23758;42.640;23.302;2023-05-29T02:13:36;2.75;;;2.55;;
37931;SDS011;23758;42.640;23.302;2023-05-29T02:16:02;2.70;;;2.50;;
37931;SDS011;23758;42.640;23.302;2023-05-29T02:18:28;2.60;;;2.40;;
37931;SDS011;23758;42.640;23.302;2023-05-29T02:20:53;2.60;;;2.40;;
37931;SDS011;23758;42.640;23.302;2023-05-29T02:23:19;2.80;;;2.60;;
37931;SDS011;23758;42.640;23.302;2023-05-29T02:25:45;2.70;;;2.50;;
37931;SDS011;23758;42.640;23.302;2023-05-29T02:28:11;2.70;;;2.55;;
37931;SDS011;23758;42.640;23.302;2023-05-29T02:30:36;3.00;;;2.80;;
37931;SDS011;23758;42.640;23.302;2023-05-29T02:33:01;2.42;;;2.33;;
37931;SDS011;23758;42.640;23.302;2023-05-29T02:35:27;2.50;;;2.40;;
37931;SDS011;23758;42.640;23.302;2023-05-29T02:37:53;2.40;;;2.30;;
37931;SDS011;23758;42.640;23.302;2023-05-29T02:40:18;2.80;;;2.60;;
37931;SDS011;23758;42.640;23.302;2023-05-29T02:42:44;2.70;;;2.50;;
37931;SDS011;23758;42.640;23.302;2023-05-29T02:45:10;2.60;;;2.40;;
37931;SDS011;23758;42.640;23.302;2023-05-29T02:47:36;2.33;;;2.22;;
37931;SDS011;23758;42.640;23.302;2023-05-29T02:50:02;2.72;;;2.53;;
37931;SDS011;23758;42.640;23.302;2023-05-29T02:52:27;3.10;;;2.90;;
37931;SDS011;23758;42.640;23.302;2023-05-29T02:54:53;2.50;;;2.35;;
37931;SDS011;23758;42.640;23.302;2023-05-29T02:57:20;2.40;;;2.30;;
37931;SDS011;23758;42.640;23.302;2023-05-29T02:59:45;2.40;;;2.30;;
37931;SDS011;23758;42.640;23.302;2023-05-29T03:02:11;2.42;;;2.33;;
37931;SDS011;23758;42.640;23.302;2023-05-29T03:04:37;3.42;;;2.78;;
37931;SDS011;23758;42.640;23.302;2023-05-29T03:07:02;2.60;;;2.40;;
37931;SDS011;23758;42.640;23.302;2023-05-29T03:09:28;2.70;;;2.50;;
37931;SDS011;23758;42.640;23.302;2023-05-29T03:11:53;2.53;;;2.38;;
37931;SDS011;23758;42.640;23.302;2023-05-29T03:14:19;2.38;;;2.28;;
37931;SDS011;23758;42.640;23.302;2023-05-29T03:16:46;2.50;;;2.40;;
37931;SDS011;23758;42.640;23.302;2023-05-29T03:19:12;2.42;;;2.33;;
37931;SDS011;23758;42.640;23.302;2023-05-29T03:21:38;2.40;;;2.30;;
37931;SDS011;23758;42.640;23.302;2023-05-29T03:24:04;3.45;;;3.17;;
37931;SDS011;23758;42.640;23.302;2023-05-29T03:26:30;2.45;;;2.33;;
37931;SDS011;23758;42.640;23.302;2023-05-29T03:28:56;2.45;;;2.30;;
37931;SDS011;23758;42.640;23.302;2023-05-29T03:31:21;2.30;;;2.20;;
37931;SDS011;23758;42.640;23.302;2023-05-29T03:33:47;2.50;;;2.40;;
37931;SDS011;23758;42.640;23.302;2023-05-29T03:36:14;2.50;;;2.40;;
37931;SDS011;23758;42.640;23.302;2023-05-29T03:38:42;2.40;;;2.30;;
37931;SDS011;23758;42.640;23.302;2023-05-29T03:41:07;2.40;;;2.30;;
37931;SDS011;23758;42.640;23.302;2023-05-29T03:43:33;2.47;;;2.30;;
37931;SDS011;23758;42.640;23.302;2023-05-29T03:45:58;2.25;;;2.15;;
37931;SDS011;23758;42.640;23.302;2023-05-29T03:48:24;2.30;;;2.20;;
37931;SDS011;23758;42.640;23.302;2023-05-29T03:50:49;2.30;;;2.20;;
37931;SDS011;23758;42.640;23.302;2023-05-29T03:53:15;2.50;;;2.30;;
37931;SDS011;23758;42.640;23.302;2023-05-29T03:55:40;2.58;;;2.38;;
37931;SDS011;23758;42.640;23.302;2023-05-29T03:58:06;2.30;;;2.20;;
37931;SDS011;23758;42.640;23.302;2023-05-29T04:00:32;2.20;;;2.10;;
37931;SDS011;23758;42.640;23.302;2023-05-29T04:02:57;2.10;;;2.00;;
37931;SDS011;23758;42.640;23.302;2023-05-29T04:05:23;2.10;;;2.00;;
37931;SDS011;23758;42.640;23.302;2023-05-29T04:07:48;2.50;;;2.30;;
37931;SDS011;23758;42.640;23.302;2023-05-29T04:10:14;2.20;;;2.10;;
37931;SDS011;23758;42.640;23.302;2023-05-29T04:12:40;2.35;;;2.15;;
37931;SDS011;23758;42.640;23.302;2023-05-29T04:15:06;2.10;;;2.00;;
37931;SDS011;23758;42.640;23.302;2023-05-29T04:17:32;2.20;;;2.10;;
37931;SDS011;23758;42.640;23.302;2023-05-29T04:19:57;2.10;;;2.00;;
37931;SDS011;23758;42.640;23.302;2023-05-29T04:22:23;2.67;;;2.10;;
37931;SDS011;23758;42.640;23.302;2023-05-29T04:24:48;2.10;;;2.00;;
37931;SDS011;23758;42.640;23.302;2023-05-29T04:27:14;2.00;;;1.90;;
37931;SDS011;23758;42.640;23.302;2023-05-29T04:29:40;2.38;;;2.17;;
37931;SDS011;23758;42.640;23.302;2023-05-29T04:32:07;2.10;;;2.00;;
37931;SDS011;23758;42.640;23.302;2023-05-29T04:34:39;2.60;;;2.40;;
37931;SDS011;23758;42.640;23.302;2023-05-29T04:37:05;2.13;;;2.03;;
37931;SDS011;23758;42.640;23.302;2023-05-29T04:39:31;2.08;;;1.98;;
37931;SDS011;23758;42.640;23.302;2023-05-29T04:41:57;2.10;;;2.00;;
37931;SDS011;23758;42.640;23.302;2023-05-29T04:44:25;2.05;;;1.95;;
37931;SDS011;23758;42.640;23.302;2023-05-29T04:46:51;2.78;;;2.40;;
37931;SDS011;23758;42.640;23.302;2023-05-29T04:49:17;2.10;;;2.00;;
37931;SDS011;23758;42.640;23.302;2023-05-29T04:51:44;2.10;;;2.00;;
37931;SDS011;23758;42.640;23.302;2023-05-29T04:54:10;2.20;;;2.10;;
37931;SDS011;23758;42.640;23.302;2023-05-29T04:56:35;2.22;;;2.13;;
37931;SDS011;23758;42.640;23.302;2023-05-29T04:59:02;3.10;;;2.80;;
37931;SDS011;23758;42.640;23.302;2023-05-29T05:01:27;3.00;;;2.45;;
37931;SDS011;23758;42.640;23.302;2023-05-29T05:03:53;4.47;;;4.05;;
37931;SDS011;23758;42.640;23.302;2023-05-29T05:06:21;7.95;;;5.10;;
37931;SDS011;23758;42.640;23.302;2023-05-29T05:08:47;3.22;;;2.97;;
37931;SDS011;23758;42.640;23.302;2023-05-29T05:11:12;2.90;;;2.70;;
37931;SDS011;23758;42.640;23.302;2023-05-29T05:13:38;2.30;;;2.20;;
37931;SDS011;23758;42.640;23.302;2023-05-29T05:16:04;2.42;;;2.25;;
37931;SDS011;23758;42.640;23.302;2023-05-29T05:18:30;1.70;;;1.60;;
37931;SDS011;23758;42.640;23.302;2023-05-29T05:20:56;1.80;;;1.70;;
37931;SDS011;23758;42.640;23.302;2023-05-29T05:23:21;1.80;;;1.70;;
37931;SDS011;23758;42.640;23.302;2023-05-29T05:25:46;1.90;;;1.80;;
37931;SDS011;23758;42.640;23.302;2023-05-29T05:28:12;1.92;;;1.83;;
37931;SDS011;23758;42.640;23.302;2023-05-29T05:30:38;2.03;;;1.83;;
37931;SDS011;23758;42.640;23.302;2023-05-29T05:33:03;1.42;;;1.33;;
37931;SDS011;23758;42.640;23.302;2023-05-29T05:35:29;1.65;;;1.55;;
37931;SDS011;23758;42.640;23.302;2023-05-29T05:37:54;1.90;;;1.80;;
37931;SDS011;23758;42.640;23.302;2023-05-29T05:40:23;1.90;;;1.80;;
37931;SDS011;23758;42.640;23.302;2023-05-29T05:42:48;2.15;;;2.05;;
37931;SDS011;23758;42.640;23.302;2023-05-29T05:45:14;2.00;;;1.90;;
37931;SDS011;23758;42.640;23.302;2023-05-29T05:47:39;2.10;;;1.98;;
37931;SDS011;23758;42.640;23.302;2023-05-29T05:50:05;1.90;;;1.80;;
37931;SDS011;23758;42.640;23.302;2023-05-29T05:52:31;1.80;;;1.70;;
37931;SDS011;23758;42.640;23.302;2023-05-29T05:54:57;1.80;;;1.70;;
37931;SDS011;23758;42.640;23.302;2023-05-29T05:57:23;2.25;;;1.85;;
37931;SDS011;23758;42.640;23.302;2023-05-29T05:59:48;1.90;;;1.80;;
37931;SDS011;23758;42.640;23.302;2023-05-29T06:02:14;2.03;;;1.90;;
37931;SDS011;23758;42.640;23.302;2023-05-29T06:04:40;1.88;;;1.77;;
37931;SDS011;23758;42.640;23.302;2023-05-29T06:07:05;1.98;;;1.88;;
37931;SDS011;23758;42.640;23.302;2023-05-29T06:09:31;1.90;;;1.80;;
37931;SDS011;23758;42.640;23.302;2023-05-29T06:11:57;1.95;;;1.85;;
37931;SDS011;23758;42.640;23.302;2023-05-29T06:14:23;2.67;;;2.45;;
37931;SDS011;23758;42.640;23.302;2023-05-29T06:16:49;2.20;;;2.03;;
37931;SDS011;23758;42.640;23.302;2023-05-29T06:19:15;2.10;;;2.00;;
37931;SDS011;23758;42.640;23.302;2023-05-29T06:21:41;2.35;;;2.15;;
37931;SDS011;23758;42.640;23.302;2023-05-29T06:24:06;2.25;;;2.10;;
37931;SDS011;23758;42.640;23.302;2023-05-29T06:26:32;2.05;;;1.90;;
37931;SDS011;23758;42.640;23.302;2023-05-29T06:28:57;1.80;;;1.70;;
37931;SDS011;23758;42.640;23.302;2023-05-29T06:31:23;1.70;;;1.60;;
37931;SDS011;23758;42.640;23.302;2023-05-29T06:33:48;1.80;;;1.70;;
37931;SDS011;23758;42.640;23.302;2023-05-29T06:36:14;1.70;;;1.60;;
37931;SDS011;23758;42.640;23.302;2023-05-29T06:38:40;1.80;;;1.70;;
37931;SDS011;23758;42.640;23.302;2023-05-29T06:41:10;1.98;;;1.88;;
37931;SDS011;23758;42.640;23.302;2023-05-29T06:43:36;1.98;;;1.88;;
37931;SDS011;23758;42.640;23.302;2023-05-29T06:46:01;1.85;;;1.75;;
37931;SDS011;23758;42.640;23.302;2023-05-29T06:48:27;1.95;;;1.85;;
37931;SDS011;23758;42.640;23.302;2023-05-29T06:50:52;2.10;;;2.00;;
37931;SDS011;23758;42.640;23.302;2023-05-29T06:53:18;2.00;;;1.90;;
37931;SDS011;23758;42.640;23.302;2023-05-29T06:55:44;2.13;;;2.03;;
37931;SDS011;23758;42.640;23.302;2023-05-29T06:58:09;1.90;;;1.80;;
37931;SDS011;23758;42.640;23.302;2023-05-29T07:00:36;2.08;;;1.98;;
37931;SDS011;23758;42.640;23.302;2023-05-29T07:03:01;2.10;;;2.00;;
37931;SDS011;23758;42.640;23.302;2023-05-29T07:05:27;2.25;;;2.00;;
37931;SDS011;23758;42.640;23.302;2023-05-29T07:07:53;2.00;;;1.90;;
37931;SDS011;23758;42.640;23.302;2023-05-29T07:10:19;1.90;;;1.80;;
37931;SDS011;23758;42.640;23.302;2023-05-29T07:12:45;1.90;;;1.80;;
37931;SDS011;23758;42.640;23.302;2023-05-29T07:15:14;1.77;;;1.67;;
37931;SDS011;23758;42.640;23.302;2023-05-29T07:17:39;1.80;;;1.70;;
37931;SDS011;23758;42.640;23.302;2023-05-29T07:20:05;2.85;;;2.00;;
37931;SDS011;23758;42.640;23.302;2023-05-29T07:22:33;1.80;;;1.70;;
37931;SDS011;23758;42.640;23.302;2023-05-29T07:24:59;1.90;;;1.80;;
37931;SDS011;23758;42.640;23.302;2023-05-29T07:27:25;1.60;;;1.50;;
37931;SDS011;23758;42.640;23.302;2023-05-29T07:29:50;1.70;;;1.60;;
37931;SDS011;23758;42.640;23.302;2023-05-29T07:32:16;1.50;;;1.40;;
37931;SDS011;23758;42.640;23.302;2023-05-29T07:34:41;1.67;;;1.58;;
37931;SDS011;23758;42.640;23.302;2023-05-29T07:37:07;1.60;;;1.50;;
37931;SDS011;23758;42.640;23.302;2023-05-29T07:39:34;1.80;;;1.70;;
37931;SDS011;23758;42.640;23.302;2023-05-29T07:42:01;1.80;;;1.70;;
37931;SDS011;23758;42.640;23.302;2023-05-29T07:44:27;1.80;;;1.70;;
37931;SDS011;23758;42.640;23.302;2023-05-29T07:46:52;2.00;;;1.90;;
37931;SDS011;23758;42.640;23.302;2023-05-29T07:49:19;2.17;;;2.08;;
37931;SDS011;23758;42.640;23.302;2023-05-29T07:51:44;2.30;;;2.20;;
37931;SDS011;23758;42.640;23.302;2023-05-29T07:54:10;2.10;;;2.00;;
37931;SDS011;23758;42.640;23.302;2023-05-29T07:56:36;2.00;;;1.90;;
37931;SDS011;23758;42.640;23.302;2023-05-29T07:59:02;1.90;;;1.80;;
37931;SDS011;23758;42.640;23.302;2023-05-29T08:01:28;1.95;;;1.85;;
37931;SDS011;23758;42.640;23.302;2023-05-29T08:03:54;1.95;;;1.85;;
37931;SDS011;23758;42.640;23.302;2023-05-29T08:06:20;2.03;;;1.92;;
37931;SDS011;23758;42.640;23.302;2023-05-29T08:08:45;2.30;;;2.20;;
37931;SDS011;23758;42.640;23.302;2023-05-29T08:11:11;2.50;;;2.30;;
37931;SDS011;23758;42.640;23.302;2023-05-29T08:13:37;2.00;;;1.90;;
37931;SDS011;23758;42.640;23.302;2023-05-29T08:16:02;1.77;;;1.67;;
37931;SDS011;23758;42.640;23.302;2023-05-29T08:18:30;2.45;;;2.08;;
37931;SDS011;23758;42.640;23.302;2023-05-29T08:20:56;1.90;;;1.80;;
37931;SDS011;23758;42.640;23.302;2023-05-29T08:23:21;2.15;;;2.05;;
37931;SDS011;23758;42.640;23.302;2023-05-29T08:25:47;2.10;;;2.00;;
37931;SDS011;23758;42.640;23.302;2023-05-29T08:28:14;2.30;;;2.20;;
37931;SDS011;23758;42.640;23.302;2023-05-29T08:30:40;2.65;;;2.45;;
37931;SDS011;23758;42.640;23.302;2023-05-29T08:33:05;2.90;;;2.70;;
37931;SDS011;23758;42.640;23.302;2023-05-29T08:35:31;2.53;;;2.33;;
37931;SDS011;23758;42.640;23.302;2023-05-29T08:37:57;2.78;;;2.42;;
37931;SDS011;23758;42.640;23.302;2023-05-29T08:40:22;2.05;;;1.95;;
37931;SDS011;23758;42.640;23.302;2023-05-29T08:43:08;2.08;;;1.98;;
37931;SDS011;23758;42.640;23.302;2023-05-29T08:45:40;2.10;;;2.00;;
37931;SDS011;23758;42.640;23.302;2023-05-29T08:48:07;2.13;;;2.03;;
37931;SDS011;23758;42.640;23.302;2023-05-29T08:50:35;4.03;;;1.88;;
37931;SDS011;23758;42.640;23.302;2023-05-29T08:53:00;1.60;;;1.50;;
37931;SDS011;23758;42.640;23.302;2023-05-29T08:55:26;1.50;;;1.40;;
37931;SDS011;23758;42.640;23.302;2023-05-29T08:57:51;1.40;;;1.30;;
37931;SDS011;23758;42.640;23.302;2023-05-29T09:00:17;1.40;;;1.30;;
37931;SDS011;23758;42.640;23.302;2023-05-29T09:02:45;1.58;;;1.48;;
37931;SDS011;23758;42.640;23.302;2023-05-29T09:05:14;1.52;;;1.42;;
37931;SDS011;23758;42.640;23.302;2023-05-29T09:07:39;1.60;;;1.50;;
37931;SDS011;23758;42.640;23.302;2023-05-29T09:10:06;1.50;;;1.40;;
37931;SDS011;23758;42.640;23.302;2023-05-29T09:12:33;1.50;;;1.40;;
37931;SDS011;23758;42.640;23.302;2023-05-29T09:14:59;1.70;;;1.60;;
37931;SDS011;23758;42.640;23.302;2023-05-29T09:17:29;1.60;;;1.50;;
37931;SDS011;23758;42.640;23.302;2023-05-29T09:19:56;1.67;;;1.58;;
37931;SDS011;23758;42.640;23.302;2023-05-29T09:22:21;1.70;;;1.60;;
37931;SDS011;23758;42.640;23.302;2023-05-29T09:24:47;1.70;;;1.60;;
37931;SDS011;23758;42.640;23.302;2023-05-29T09:27:15;1.70;;;1.60;;
37931;SDS011;23758;42.640;23.302;2023-05-29T09:29:42;1.60;;;1.50;;
37931;SDS011;23758;42.640;23.302;2023-05-29T09:32:10;1.55;;;1.45;;
37931;SDS011;23758;42.640;23.302;2023-05-29T09:34:36;1.65;;;1.55;;
37931;SDS011;23758;42.640;23.302;2023-05-29T09:37:06;1.50;;;1.40;;
37931;SDS011;23758;42.640;23.302;2023-05-29T09:44:36;1.50;;;1.40;;
37931;SDS011;23758;42.640;23.302;2023-05-29T09:47:02;1.33;;;1.30;;
37931;SDS011;23758;42.640;23.302;2023-05-29T09:49:27;1.58;;;1.48;;
37931;SDS011;23758;42.640;23.302;2023-05-29T09:51:56;1.40;;;1.30;;
37931;SDS011;23758;42.640;23.302;2023-05-29T09:54:24;1.60;;;1.50;;
37931;SDS011;23758;42.640;23.302;2023-05-29T09:56:53;1.80;;;1.70;;
37931;SDS011;23758;42.640;23.302;2023-05-29T09:59:20;1.70;;;1.60;;
37931;SDS011;23758;42.640;23.302;2023-05-29T10:01:48;1.60;;;1.50;;
37931;SDS011;23758;42.640;23.302;2023-05-29T10:04:14;1.60;;;1.50;;
37931;SDS011;23758;42.640;23.302;2023-05-29T10:06:49;1.70;;;1.60;;
37931;SDS011;23758;42.640;23.302;2023-05-29T10:09:15;1.70;;;1.60;;
37931;SDS011;23758;42.640;23.302;2023-05-29T10:11:43;1.77;;;1.67;;
37931;SDS011;23758;42.640;23.302;2023-05-29T10:14:11;1.80;;;1.70;;
37931;SDS011;23758;42.640;23.302;2023-05-29T10:16:41;1.90;;;1.80;;
37931;SDS011;23758;42.640;23.302;2023-05-29T10:19:11;1.77;;;1.67;;
37931;SDS011;23758;42.640;23.302;2023-05-29T10:21:38;1.67;;;1.58;;
37931;SDS011;23758;42.640;23.302;2023-05-29T10:24:06;1.83;;;1.73;;
37931;SDS011;23758;42.640;23.302;2023-05-29T10:26:33;1.80;;;1.70;;
37931;SDS011;23758;42.640;23.302;2023-05-29T10:29:05;1.65;;;1.55;;
37931;SDS011;23758;42.640;23.302;2023-05-29T10:31:35;1.67;;;1.58;;
37931;SDS011;23758;42.640;23.302;2023-05-29T10:36:49;1.73;;;1.63;;
37931;SDS011;23758;42.640;23.302;2023-05-29T10:39:21;1.73;;;1.63;;
37931;SDS011;23758;42.640;23.302;2023-05-29T10:41:47;1.60;;;1.50;;
37931;SDS011;23758;42.640;23.302;2023-05-29T10:49:24;1.30;;;1.20;;
37931;SDS011;23758;42.640;23.302;2023-05-29T10:51:50;1.50;;;1.40;;
37931;SDS011;23758;42.640;23.302;2023-05-29T10:54:16;1.60;;;1.50;;
37931;SDS011;23758;42.640;23.302;2023-05-29T10:56:42;1.40;;;1.30;;
37931;SDS011;23758;42.640;23.302;2023-05-29T10:59:10;1.60;;;1.50;;
37931;SDS011;23758;42.640;23.302;2023-05-29T11:01:38;1.60;;;1.50;;
37931;SDS011;23758;42.640;23.302;2023-05-29T11:06:49;1.85;;;1.75;;
37931;SDS011;23758;42.640;23.302;2023-05-29T11:12:24;2.88;;;2.67;;
37931;SDS011;23758;42.640;23.302;2023-05-29T11:15:10;2.30;;;2.10;;
37931;SDS011;23758;42.640;23.302;2023-05-29T11:20:04;2.30;;;2.20;;
37931;SDS011;23758;42.640;23.302;2023-05-29T11:22:41;2.30;;;2.20;;
37931;SDS011;23758;42.640;23.302;2023-05-29T11:25:23;2.15;;;2.05;;
37931;SDS011;23758;42.640;23.302;2023-05-29T11:27:49;1.90;;;1.80;;
37931;SDS011;23758;42.640;23.302;2023-05-29T11:30:17;1.88;;;1.77;;
37931;SDS011;23758;42.640;23.302;2023-05-29T11:32:43;1.70;;;1.60;;
37931;SDS011;23758;42.640;23.302;2023-05-29T11:35:10;1.70;;;1.60;;
37931;SDS011;23758;42.640;23.302;2023-05-29T11:37:38;2.05;;;1.85;;
37931;SDS011;23758;42.640;23.302;2023-05-29T11:40:07;2.20;;;2.10;;
37931;SDS011;23758;42.640;23.302;2023-05-29T11:42:40;2.17;;;2.08;;
37931;SDS011;23758;42.640;23.302;2023-05-29T11:45:19;1.52;;;1.42;;
37931;SDS011;23758;42.640;23.302;2023-05-29T11:52:46;1.75;;;1.40;;
37931;SDS011;23758;42.640;23.302;2023-05-29T11:55:12;1.75;;;1.65;;
37931;SDS011;23758;42.640;23.302;2023-05-29T11:57:37;1.63;;;1.52;;
37931;SDS011;23758;42.640;23.302;2023-05-29T12:00:03;1.73;;;1.63;;
37931;SDS011;23758;42.640;23.302;2023-05-29T12:02:35;1.70;;;1.60;;
37931;SDS011;23758;42.640;23.302;2023-05-29T12:05:04;2.10;;;2.00;;
37931;SDS011;23758;42.640;23.302;2023-05-29T12:07:32;2.67;;;2.47;;
37931;SDS011;23758;42.640;23.302;2023-05-29T12:10:15;3.30;;;3.10;;
37931;SDS011;23758;42.640;23.302;2023-05-29T12:12:42;2.50;;;2.35;;
37931;SDS011;23758;42.640;23.302;2023-05-29T12:15:11;2.50;;;2.30;;
37931;SDS011;23758;42.640;23.302;2023-05-29T12:17:38;2.70;;;2.50;;
37931;SDS011;23758;42.640;23.302;2023-05-29T12:20:05;2.20;;;2.10;;
37931;SDS011;23758;42.640;23.302;2023-05-29T12:22:34;2.40;;;2.30;;
37931;SDS011;23758;42.640;23.302;2023-05-29T12:25:05;2.83;;;2.63;;
37931;SDS011;23758;42.640;23.302;2023-05-29T12:27:37;2.20;;;2.10;;
37931;SDS011;23758;42.640;23.302;2023-05-29T12:30:08;2.10;;;2.00;;
37931;SDS011;23758;42.640;23.302;2023-05-29T12:33:00;3.80;;;2.63;;
37931;SDS011;23758;42.640;23.302;2023-05-29T12:35:29;2.00;;;1.90;;
37931;SDS011;23758;42.640;23.302;2023-05-29T12:37:55;2.00;;;1.90;;
37931;SDS011;23758;42.640;23.302;2023-05-29T12:42:57;2.10;;;2.00;;
37931;SDS011;23758;42.640;23.302;2023-05-29T12:45:27;2.22;;;2.08;;
37931;SDS011;23758;42.640;23.302;2023-05-29T12:47:54;2.20;;;2.10;;
37931;SDS011;23758;42.640;23.302;2023-05-29T12:52:57;2.40;;;2.20;;
37931;SDS011;23758;42.640;23.302;2023-05-29T12:55:40;2.30;;;2.20;;
37931;SDS011;23758;42.640;23.302;2023-05-29T12:58:07;3.65;;;2.33;;
37931;SDS011;23758;42.640;23.302;2023-05-29T13:00:34;2.15;;;2.05;;
37931;SDS011;23758;42.640;23.302;2023-05-29T13:03:00;2.00;;;1.90;;
37931;SDS011;23758;42.640;23.302;2023-05-29T13:05:26;2.10;;;2.00;;
37931;SDS011;23758;42.640;23.302;2023-05-29T13:07:52;2.42;;;2.22;;
37931;SDS011;23758;42.640;23.302;2023-05-29T13:10:18;1.98;;;1.88;;
37931;SDS011;23758;42.640;23.302;2023-05-29T13:12:44;2.10;;;2.00;;
37931;SDS011;23758;42.640;23.302;2023-05-29T13:15:11;2.00;;;1.90;;
37931;SDS011;23758;42.640;23.302;2023-05-29T13:17:38;2.10;;;2.00;;
37931;SDS011;23758;42.640;23.302;2023-05-29T13:20:08;1.90;;;1.80;;
37931;SDS011;23758;42.640;23.302;2023-05-29T13:22:35;2.00;;;1.90;;
37931;SDS011;23758;42.640;23.302;2023-05-29T13:25:00;1.80;;;1.70;;
37931;SDS011;23758;42.640;23.302;2023-05-29T13:27:26;2.13;;;2.03;;
37931;SDS011;23758;42.640;23.302;2023-05-29T13:29:52;1.80;;;1.70;;
37931;SDS011;23758;42.640;23.302;2023-05-29T13:32:17;2.05;;;1.90;;
37931;SDS011;23758;42.640;23.302;2023-05-29T13:34:43;2.42;;;2.22;;
37931;SDS011;23758;42.640;23.302;2023-05-29T13:37:08;2.30;;;2.10;;
37931;SDS011;23758;42.640;23.302;2023-05-29T13:39:34;2.00;;;1.90;;
37931;SDS011;23758;42.640;23.302;2023-05-29T13:41:59;2.05;;;1.95;;
37931;SDS011;23758;42.640;23.302;2023-05-29T13:44:25;2.40;;;2.20;;
37931;SDS011;23758;42.640;23.302;2023-05-29T13:46:51;2.05;;;1.90;;
37931;SDS011;23758;42.640;23.302;2023-05-29T13:49:16;2.20;;;2.10;;
37931;SDS011;23758;42.640;23.302;2023-05-29T13:51:42;2.58;;;2.38;;
37931;SDS011;23758;42.640;23.302;2023-05-29T13:54:07;2.00;;;1.90;;
37931;SDS011;23758;42.640;23.302;2023-05-29T13:56:33;2.15;;;2.05;;
37931;SDS011;23758;42.640;23.302;2023-05-29T13:58:58;2.10;;;2.00;;
37931;SDS011;23758;42.640;23.302;2023-05-29T14:01:30;2.55;;;2.38;;
37931;SDS011;23758;42.640;23.302;2023-05-29T14:03:56;2.97;;;2.47;;
37931;SDS011;23758;42.640;23.302;2023-05-29T14:06:21;2.40;;;2.30;;
37931;SDS011;23758;42.640;23.302;2023-05-29T14:08:47;3.15;;;2.85;;
37931;SDS011;23758;42.640;23.302;2023-05-29T14:11:12;2.10;;;2.00;;
37931;SDS011;23758;42.640;23.302;2023-05-29T14:13:38;2.45;;;2.25;;
37931;SDS011;23758;42.640;23.302;2023-05-29T14:16:03;2.50;;;2.33;;
37931;SDS011;23758;42.640;23.302;2023-05-29T14:18:29;2.00;;;1.90;;
37931;SDS011;23758;42.640;23.302;2023-05-29T14:20:54;2.10;;;2.00;;
37931;SDS011;23758;42.640;23.302;2023-05-29T14:23:20;2.00;;;1.90;;
37931;SDS011;23758;42.640;23.302;2023-05-29T14:25:45;1.90;;;1.80;;
37931;SDS011;23758;42.640;23.302;2023-05-29T14:28:11;2.00;;;1.90;;
37931;SDS011;23758;42.640;23.302;2023-05-29T14:30:37;1.90;;;1.80;;
37931;SDS011;23758;42.640;23.302;2023-05-29T14:33:02;1.75;;;1.65;;
37931;SDS011;23758;42.640;23.302;2023-05-29T14:35:28;1.90;;;1.80;;
37931;SDS011;23758;42.640;23.302;2023-05-29T14:37:54;6.22;;;2.08;;
37931;SDS011;23758;42.640;23.302;2023-05-29T14:40:20;2.03;;;1.92;;
37931;SDS011;23758;42.640;23.302;2023-05-29T14:42:45;1.98;;;1.88;;
37931;SDS011;23758;42.640;23.302;2023-05-29T14:45:11;1.90;;;1.80;;
37931;SDS011;23758;42.640;23.302;2023-05-29T14:47:36;2.00;;;1.90;;
37931;SDS011;23758;42.640;23.302;2023-05-29T14:50:02;2.00;;;1.90;;
37931;SDS011;23758;42.640;23.302;2023-05-29T14:52:28;2.00;;;1.90;;
37931;SDS011;23758;42.640;23.302;2023-05-29T14:54:53;1.90;;;1.80;;
37931;SDS011;23758;42.640;23.302;2023-05-29T14:57:19;2.22;;;2.05;;
37931;SDS011;23758;42.640;23.302;2023-05-29T14:59:45;2.20;;;2.00;;
37931;SDS011;23758;42.640;23.302;2023-05-29T15:02:10;1.70;;;1.60;;
37931;SDS011;23758;42.640;23.302;2023-05-29T15:04:36;2.00;;;1.90;;
37931;SDS011;23758;42.640;23.302;2023-05-29T15:07:01;2.38;;;2.17;;